Kagi Airport

KGW · Northern Province, 巴布亚新几内亚

METAR KGW · Kagi Airport

17 四月 18:00 LT
24m
使用的METAR站距离机场60 km。
罗盘
风向 的 Kagi Airport 7/25
风: 3 kt, 1 beaufort

1 kt

3 kt
改变
0 ft 5.000 10.000 15.000 20.000
Cloud Cloud
FEW 1.000
Cloud Cloud Cloud Cloud
SCT 4.000
Cloud Cloud Cloud Cloud Cloud Cloud
BKN 16.000
METAR AYPY 170800Z VRB03KT 9999 FEW010 SCT040 BKN160 29/27 Q1005

METAR Kagi Airport - KGW

Kagi Airport是,巴布亚新几内亚中的小机场。 该机场位于纬度-9,13603和经度147,66930。 该机场有一条跑道: 7/25. 这个机场没有ICAO代码,我们使用PG-0177作为参考。 该机场的本地机场标识(FAA LID)为KGW。 该机场的IATA代码为KGW。 机场在Port Moresby FIR中。

该航空气象观测是针对傑克遜斯國際機場在2024年4月17日 18:00, 当地时间进行的。

机场观察

可变方向的风很小或没有风。

可见度为10 km 或者更多。

有几云在1.000 ft的高度, 疏云,零星散落的云朵在4.000 ft的高度 和 碎云在16.000 ft的高度。 破损或更高的上限为16.000 ft。

温度和风寒是29 °C。 热指数为37。 露点为27 °C,相对湿度为89%。 海平面上的气压为1005 hPa (QNH)。

白天

今天,太阳从06:12升起,在18:05降落。 这适用于Kagi Airport,世界夏令时可能有所不同。 当地时间与世界标准时间之间的时差为+10 小时。 夏令时目前正在进行中。

公司介绍

我们没有关于这个机场的公司信息。

体会

到Vliegles.nl去找飞行课程,跳伞和其他飞行体验。 浏览页面,了解Kagi Airport附近所有可用的活动。 你也可以使用搜索功能来寻找你所在地附近的特定飞行课程、跳伞或其他飞行体验。

跑道

Id 标题 侧风 逆风 侧风 %
7/25 071°-251° 3 kt 95 %

逆风成分最大的方向会被突出显示,并用于横风计算。 这并不一定意味着这个方向在使用。

乌云

1.000 ft FEW 几云
4.000 ft SCT 疏云,零星散落的云朵
16.000 ft BKN 碎云

温度 & 天气

温度 29 °C
露点 27 °C
相对湿度 89%
热度指数 37 °C
Kp-index 0 (0-9)

白天

日出
06:14 (11:50)
中午
12:10
日落
18:07

小工具

你想在你的网站上有一个关于Kagi Airport的当前航空天气(METAR)的小部件吗?

显示HTML代码
报告变更